createdAt,value
2018-03-03T00:00:36.343Z,47.6
2018-03-03T00:01:26.298Z,47.6
2018-03-03T00:02:15.680Z,47.6
2018-03-03T00:03:06.140Z,47.6
2018-03-03T00:03:55.432Z,47.6
2018-03-03T00:04:46.637Z,47.6
2018-03-03T00:05:37.032Z,47.6
2018-03-03T00:06:25.855Z,47.5
2018-03-03T00:07:16.215Z,47.6
2018-03-03T00:08:06.613Z,47.5
2018-03-03T00:08:56.352Z,47.5
2018-03-03T00:09:46.195Z,47.5
2018-03-03T00:10:36.408Z,47.5
2018-03-03T00:11:26.510Z,47.5
2018-03-03T00:12:16.554Z,47.5
2018-03-03T00:13:06.349Z,47.5
2018-03-03T00:13:56.762Z,47.5
2018-03-03T00:14:47.029Z,47.4
2018-03-03T00:15:37.670Z,47.5
2018-03-03T00:16:26.502Z,47.5
2018-03-03T00:17:16.989Z,47.5
2018-03-03T00:18:07.554Z,47.4
2018-03-03T00:18:56.343Z,47.4
2018-03-03T00:19:46.606Z,47.4
2018-03-03T00:20:37.320Z,47.4
2018-03-03T00:21:26.311Z,47.4
2018-03-03T00:22:16.893Z,47.4
2018-03-03T00:23:06.407Z,47.4
2018-03-03T00:23:58.272Z,47.4
2018-03-03T00:24:46.871Z,47.4
2018-03-03T00:25:38.220Z,47.4
2018-03-03T00:26:27.203Z,47.4
2018-03-03T00:27:17.775Z,47.4
2018-03-03T00:28:07.840Z,47.4
2018-03-03T00:28:57.236Z,47.4
2018-03-03T00:29:47.353Z,47.4
2018-03-03T00:30:37.555Z,47.4
2018-03-03T00:31:27.582Z,47.4
2018-03-03T00:32:17.615Z,47.4
2018-03-03T00:33:07.277Z,47.4
2018-03-03T00:33:58.535Z,47.4
2018-03-03T00:34:47.999Z,47.3
2018-03-03T00:35:37.665Z,47.4
2018-03-03T00:36:28.496Z,47.4
2018-03-03T00:37:18.642Z,47.4
2018-03-03T00:38:08.010Z,47.3
2018-03-03T00:38:59.252Z,47.3
2018-03-03T00:39:47.650Z,47.3
2018-03-03T00:40:38.006Z,47.3
2018-03-03T00:41:28.666Z,47.3
2018-03-03T00:42:18.204Z,47.3
2018-03-03T00:43:07.654Z,47.3
2018-03-03T00:43:58.837Z,47.3
2018-03-03T00:44:49.079Z,47.3
2018-03-03T00:45:39.117Z,47.3
2018-03-03T00:46:28.857Z,47.3
2018-03-03T00:47:19.484Z,47.3
2018-03-03T00:48:10.445Z,47.3
2018-03-03T00:48:59.387Z,47.3
2018-03-03T00:49:49.282Z,47.3
2018-03-03T00:50:39.432Z,47.3
2018-03-03T00:51:29.152Z,47.3
2018-03-03T00:52:18.894Z,47.3
2018-03-03T00:53:09.216Z,47.3
2018-03-03T00:53:59.637Z,47.3
2018-03-03T00:54:49.219Z,47.3
2018-03-03T00:55:39.481Z,47.3
2018-03-03T00:56:30.212Z,47.2
2018-03-03T00:57:19.222Z,47.3
2018-03-03T00:58:10.389Z,47.3
2018-03-03T00:58:59.869Z,47.2
2018-03-03T00:59:49.651Z,47.2
2018-03-03T01:00:40.406Z,47.3
2018-03-03T01:01:30.251Z,47.2
2018-03-03T01:02:20.529Z,47.2
2018-03-03T01:03:10.268Z,47.2
2018-03-03T01:04:00.726Z,47.2
2018-03-03T01:04:50.102Z,47.2
2018-03-03T01:05:41.337Z,47.2
2018-03-03T01:06:30.576Z,47.2
2018-03-03T01:07:20.820Z,47.2
2018-03-03T01:08:10.720Z,47.2
2018-03-03T01:09:00.474Z,47.2
2018-03-03T01:09:51.403Z,47.2
2018-03-03T01:10:40.871Z,47.1
2018-03-03T01:11:31.414Z,47.1
2018-03-03T01:12:21.154Z,47.1
2018-03-03T01:13:10.377Z,47.1
2018-03-03T01:14:01.109Z,47.1
2018-03-03T01:14:51.140Z,47.1
2018-03-03T01:15:41.008Z,47.1
2018-03-03T01:16:30.997Z,47.1
2018-03-03T01:17:21.035Z,47.1
2018-03-03T01:18:10.906Z,47.1
2018-03-03T01:19:01.364Z,47.1
2018-03-03T01:19:51.592Z,47.1
2018-03-03T01:20:42.298Z,47.1
2018-03-03T01:21:31.821Z,47.1
2018-03-03T01:22:20.670Z,47.1
2018-03-03T01:23:10.853Z,47.1
2018-03-03T01:24:01.419Z,47.1
2018-03-03T01:24:50.563Z,47.1
2018-03-03T01:25:41.588Z,47.1
2018-03-03T01:26:31.994Z,47.1
2018-03-03T01:27:21.921Z,47.1
2018-03-03T01:28:11.513Z,47.1
2018-03-03T01:29:02.013Z,47.1
2018-03-03T01:29:52.084Z,47.1
2018-03-03T01:30:42.496Z,47.1
2018-03-03T01:31:32.361Z,47.1
2018-03-03T01:32:21.550Z,47
2018-03-03T01:33:12.023Z,47
2018-03-03T01:34:02.372Z,47
2018-03-03T01:34:53.002Z,47
2018-03-03T01:35:41.770Z,47
2018-03-03T01:36:33.455Z,47
2018-03-03T01:37:22.245Z,47
2018-03-03T01:38:11.440Z,47
2018-03-03T01:39:02.707Z,47
2018-03-03T01:39:53.447Z,47
2018-03-03T01:40:42.525Z,47
2018-03-03T01:41:32.877Z,47
2018-03-03T01:42:23.507Z,47
2018-03-03T01:43:12.280Z,46.9
2018-03-03T01:44:02.268Z,46.9
2018-03-03T01:44:52.494Z,47
2018-03-03T01:45:43.126Z,46.9
2018-03-03T01:46:33.519Z,46.9
2018-03-03T01:47:23.632Z,46.9
2018-03-03T01:48:13.451Z,46.9
2018-03-03T01:49:03.394Z,46.9
2018-03-03T01:49:53.698Z,46.9
2018-03-03T01:50:43.492Z,46.9
2018-03-03T01:51:33.552Z,46.9
2018-03-03T01:52:23.689Z,46.9
2018-03-03T01:53:13.184Z,46.9
2018-03-03T01:54:03.493Z,46.9
2018-03-03T01:54:54.008Z,46.9
2018-03-03T01:55:44.086Z,46.9
2018-03-03T01:56:33.742Z,46.9
2018-03-03T01:57:23.536Z,46.9
2018-03-03T01:58:14.150Z,46.9
2018-03-03T01:59:04.126Z,46.9
2018-03-03T01:59:53.898Z,46.9
2018-03-03T02:00:44.520Z,46.9
2018-03-03T02:01:34.766Z,46.9
2018-03-03T02:02:23.596Z,46.9
2018-03-03T02:03:13.623Z,46.9
2018-03-03T02:04:04.587Z,46.9
2018-03-03T02:04:54.546Z,46.9
2018-03-03T02:05:44.605Z,46.8
2018-03-03T02:06:34.315Z,46.9
2018-03-03T02:07:25.096Z,46.8
2018-03-03T02:08:14.760Z,46.8
2018-03-03T02:09:04.758Z,46.8
2018-03-03T02:09:54.771Z,46.8
2018-03-03T02:10:45.392Z,46.8
2018-03-03T02:11:34.960Z,46.8
2018-03-03T02:12:24.949Z,46.8
2018-03-03T02:13:14.497Z,46.8
2018-03-03T02:14:04.988Z,46.8
2018-03-03T02:14:56.093Z,46.8
2018-03-03T02:15:45.010Z,46.8
2018-03-03T02:16:35.501Z,46.8
2018-03-03T02:17:25.370Z,46.8
2018-03-03T02:18:15.166Z,46.8
2018-03-03T02:19:05.783Z,46.8
2018-03-03T02:19:54.777Z,46.8
2018-03-03T02:20:46.140Z,46.8
2018-03-03T02:21:35.931Z,46.8
2018-03-03T02:22:25.164Z,46.8
2018-03-03T02:23:15.145Z,46.8
2018-03-03T02:24:05.273Z,46.8
2018-03-03T02:24:55.309Z,46.8
2018-03-03T02:25:45.430Z,46.7
2018-03-03T02:26:35.507Z,46.8
2018-03-03T02:27:25.956Z,46.7
2018-03-03T02:28:16.854Z,46.7
2018-03-03T02:29:05.848Z,46.7
2018-03-03T02:29:55.745Z,46.7
2018-03-03T02:30:46.173Z,46.7
2018-03-03T02:31:36.258Z,46.7
2018-03-03T02:32:26.019Z,46.7
2018-03-03T02:33:16.928Z,46.7
2018-03-03T02:34:07.332Z,46.7
2018-03-03T02:34:57.599Z,46.7
2018-03-03T02:35:47.623Z,46.6
2018-03-03T02:36:37.419Z,46.6
2018-03-03T02:37:27.238Z,46.7
2018-03-03T02:38:17.287Z,46.6
2018-03-03T02:39:07.595Z,46.6
2018-03-03T02:39:57.625Z,46.6
2018-03-03T02:40:47.125Z,46.6
2018-03-03T02:41:37.833Z,46.6
2018-03-03T02:42:27.810Z,46.6
2018-03-03T02:43:17.872Z,46.6
2018-03-03T02:44:07.901Z,46.6
2018-03-03T02:44:58.251Z,46.6
2018-03-03T02:45:48.234Z,46.6
2018-03-03T02:46:37.805Z,46.6
2018-03-03T02:47:28.342Z,46.6
2018-03-03T02:48:17.969Z,46.6
2018-03-03T02:49:08.031Z,46.6
2018-03-03T02:49:58.370Z,46.6
2018-03-03T02:50:46.540Z,46.6
2018-03-03T02:51:38.154Z,46.6
2018-03-03T02:52:28.016Z,46.6
2018-03-03T02:53:17.161Z,46.6
2018-03-03T02:54:07.594Z,46.6
2018-03-03T02:54:57.513Z,46.6
2018-03-03T02:55:48.265Z,46.6
2018-03-03T02:56:38.019Z,46.6
2018-03-03T02:57:27.405Z,46.6
2018-03-03T02:58:18.202Z,46.5
2018-03-03T02:59:07.210Z,46.5
2018-03-03T02:59:57.270Z,46.5
2018-03-03T03:00:48.348Z,46.5
2018-03-03T03:01:38.353Z,46.5
2018-03-03T03:02:27.538Z,46.5
2018-03-03T03:03:18.388Z,46.5
2018-03-03T03:04:08.466Z,46.5
2018-03-03T03:04:59.205Z,46.5
2018-03-03T03:05:48.624Z,46.5
2018-03-03T03:06:38.418Z,46.5
2018-03-03T03:07:29.080Z,46.5
2018-03-03T03:08:18.821Z,46.5
2018-03-03T03:09:08.800Z,46.5
2018-03-03T03:09:57.859Z,46.4
2018-03-03T03:10:48.400Z,46.4
2018-03-03T03:11:38.731Z,46.4
2018-03-03T03:12:28.785Z,46.4
2018-03-03T03:13:18.292Z,46.4
2018-03-03T03:14:08.112Z,46.4
2018-03-03T03:14:59.390Z,46.4
2018-03-03T03:15:49.096Z,46.4
2018-03-03T03:16:38.255Z,46.4
2018-03-03T03:17:29.430Z,46.4
2018-03-03T03:18:19.959Z,46.4
2018-03-03T03:19:08.871Z,46.4
2018-03-03T03:20:00.236Z,46.4
2018-03-03T03:20:49.449Z,46.4
2018-03-03T03:21:39.609Z,46.4
2018-03-03T03:22:30.032Z,46.4
2018-03-03T03:23:19.604Z,46.4
2018-03-03T03:24:09.584Z,46.4
2018-03-03T03:24:59.833Z,46.4
2018-03-03T03:25:49.415Z,46.4
2018-03-03T03:26:39.899Z,46.4
2018-03-03T03:27:29.011Z,46.4
2018-03-03T03:28:19.981Z,46.4
2018-03-03T03:29:10.512Z,46.3
2018-03-03T03:29:59.599Z,46.4
2018-03-03T03:30:49.840Z,46.4
2018-03-03T03:31:40.310Z,46.3
2018-03-03T03:32:29.908Z,46.3
2018-03-03T03:33:19.919Z,46.3
2018-03-03T03:34:09.875Z,46.3
2018-03-03T03:35:00.503Z,46.3
2018-03-03T03:35:50.976Z,46.3
2018-03-03T03:36:39.746Z,46.3
2018-03-03T03:37:29.699Z,46.3
2018-03-03T03:38:20.494Z,46.3
2018-03-03T03:39:10.014Z,46.3
2018-03-03T03:39:59.856Z,46.3
2018-03-03T03:40:50.011Z,46.3
2018-03-03T03:41:41.542Z,46.3
2018-03-03T03:42:31.108Z,46.3
2018-03-03T03:43:20.356Z,46.3
2018-03-03T03:44:11.810Z,46.3
2018-03-03T03:45:01.144Z,46.3
2018-03-03T03:45:51.540Z,46.3
2018-03-03T03:46:41.095Z,46.3
2018-03-03T03:47:31.650Z,46.3
2018-03-03T03:48:22.270Z,46.3
2018-03-03T03:49:11.262Z,46.3
2018-03-03T03:50:01.492Z,46.3
2018-03-03T03:50:51.362Z,46.3
2018-03-03T03:51:41.440Z,46.3
2018-03-03T03:52:31.380Z,46.2
2018-03-03T03:53:21.275Z,46.2
2018-03-03T03:54:12.115Z,46.2
2018-03-03T03:55:01.860Z,46.2
2018-03-03T03:55:51.202Z,46.2
2018-03-03T03:56:42.223Z,46.2
2018-03-03T03:57:32.796Z,46.2
2018-03-03T03:58:22.887Z,46.2
2018-03-03T03:59:13.225Z,46.2
2018-03-03T04:00:02.434Z,46.2
2018-03-03T04:00:52.238Z,46.2
2018-03-03T04:01:43.391Z,46.2
2018-03-03T04:02:33.159Z,46.1
2018-03-03T04:03:22.900Z,46.1
2018-03-03T04:04:12.870Z,46.2
2018-03-03T04:05:03.078Z,46.1
2018-03-03T04:05:53.427Z,46.1
2018-03-03T04:06:42.766Z,46.1
2018-03-03T04:07:32.982Z,46.1
2018-03-03T04:08:22.820Z,46.1
2018-03-03T04:09:13.214Z,46.1
2018-03-03T04:10:02.382Z,46.1
2018-03-03T04:10:53.207Z,46.1
2018-03-03T04:11:43.528Z,46.1
2018-03-03T04:12:32.909Z,46.1
2018-03-03T04:13:22.576Z,46.1
2018-03-03T04:14:12.184Z,46.1
2018-03-03T04:15:02.938Z,46.1
2018-03-03T04:15:52.948Z,46.1
2018-03-03T04:16:42.727Z,46.1
2018-03-03T04:17:33.150Z,46.1
2018-03-03T04:18:23.813Z,46.1
2018-03-03T04:19:12.903Z,46.1
2018-03-03T04:20:02.456Z,46.1
2018-03-03T04:20:53.893Z,46.1
2018-03-03T04:21:43.439Z,46.1
2018-03-03T04:22:33.488Z,46.1
2018-03-03T04:23:24.340Z,46.1
2018-03-03T04:24:14.108Z,46.1
2018-03-03T04:25:03.760Z,46.1
2018-03-03T04:25:53.781Z,46.1
2018-03-03T04:26:44.337Z,46.1
2018-03-03T04:27:33.955Z,46.1
2018-03-03T04:28:23.003Z,46
2018-03-03T04:29:14.163Z,46
2018-03-03T04:30:04.111Z,46
2018-03-03T04:30:54.564Z,46
2018-03-03T04:31:44.614Z,46
2018-03-03T04:32:34.481Z,46
2018-03-03T04:33:24.761Z,46
2018-03-03T04:34:13.382Z,45.9
2018-03-03T04:35:05.162Z,45.9
2018-03-03T04:35:54.504Z,45.9
2018-03-03T04:36:44.585Z,46
2018-03-03T04:37:34.523Z,45.9
2018-03-03T04:38:24.470Z,45.9
2018-03-03T04:39:13.763Z,45.9
2018-03-03T04:40:04.902Z,45.9
2018-03-03T04:40:54.483Z,45.9
2018-03-03T04:41:44.768Z,45.9
2018-03-03T04:42:35.056Z,45.9
2018-03-03T04:43:25.265Z,45.9
2018-03-03T04:44:14.855Z,45.9
2018-03-03T04:45:05.507Z,45.9
2018-03-03T04:45:55.235Z,45.9
2018-03-03T04:46:45.011Z,45.9
2018-03-03T04:47:35.257Z,45.9
2018-03-03T04:48:25.251Z,45.9
2018-03-03T04:49:16.575Z,45.9
2018-03-03T04:50:05.683Z,45.9
2018-03-03T04:50:56.087Z,45.9
2018-03-03T04:51:45.973Z,45.9
2018-03-03T04:52:36.008Z,45.9
2018-03-03T04:53:26.903Z,45.9
2018-03-03T04:54:16.670Z,45.9
2018-03-03T04:55:06.708Z,45.9
2018-03-03T04:55:56.783Z,45.9
2018-03-03T04:56:46.120Z,45.9
2018-03-03T04:57:36.625Z,45.9
2018-03-03T04:58:25.621Z,45.9
2018-03-03T04:59:16.280Z,45.8
2018-03-03T05:00:05.540Z,45.9
2018-03-03T05:00:56.420Z,45.8
2018-03-03T05:01:46.524Z,45.8
2018-03-03T05:02:36.540Z,45.8
2018-03-03T05:03:26.066Z,45.8
2018-03-03T05:04:15.889Z,45.8
2018-03-03T05:05:06.672Z,45.8
2018-03-03T05:05:56.116Z,45.8
2018-03-03T05:06:46.759Z,45.8
2018-03-03T05:07:36.793Z,45.8
2018-03-03T05:08:26.358Z,45.8
2018-03-03T05:09:16.343Z,45.8
2018-03-03T05:10:06.898Z,45.8
2018-03-03T05:10:56.718Z,45.8
2018-03-03T05:11:46.320Z,45.8
2018-03-03T05:12:37.644Z,45.8
2018-03-03T05:13:27.180Z,45.8
2018-03-03T05:14:17.232Z,45.8
2018-03-03T05:15:06.561Z,45.8
2018-03-03T05:15:57.657Z,45.8
2018-03-03T05:16:46.387Z,45.8
2018-03-03T05:17:37.744Z,45.8
2018-03-03T05:18:26.377Z,45.8
2018-03-03T05:19:17.852Z,45.8
2018-03-03T05:20:07.746Z,45.7
2018-03-03T05:20:57.524Z,45.8
2018-03-03T05:21:47.088Z,45.7
2018-03-03T05:22:37.706Z,45.7
2018-03-03T05:23:28.646Z,45.7
2018-03-03T05:24:17.317Z,45.7
2018-03-03T05:25:08.190Z,45.7
2018-03-03T05:25:57.193Z,45.7
2018-03-03T05:26:48.016Z,45.7
2018-03-03T05:27:37.977Z,45.7
2018-03-03T05:28:29.054Z,45.7
2018-03-03T05:29:17.124Z,45.7
2018-03-03T05:30:08.871Z,45.6
2018-03-03T05:30:59.038Z,45.6
2018-03-03T05:31:48.895Z,45.6
2018-03-03T05:32:38.113Z,45.6
2018-03-03T05:33:28.778Z,45.6
2018-03-03T05:34:18.357Z,45.6
2018-03-03T05:35:08.798Z,45.6
2018-03-03T05:35:57.868Z,45.6
2018-03-03T05:36:48.523Z,45.6
2018-03-03T05:37:38.674Z,45.6
2018-03-03T05:38:29.171Z,45.6
2018-03-03T05:39:17.805Z,45.6
2018-03-03T05:40:08.733Z,45.6
2018-03-03T05:40:59.262Z,45.6
2018-03-03T05:41:49.664Z,45.6
2018-03-03T05:42:39.348Z,45.6
2018-03-03T05:43:28.969Z,45.5
2018-03-03T05:44:18.620Z,45.5
2018-03-03T05:45:09.166Z,45.5
2018-03-03T05:45:59.608Z,45.4
2018-03-03T05:46:49.937Z,45.4
2018-03-03T05:47:40.037Z,45.4
2018-03-03T05:48:30.057Z,45.4
2018-03-03T05:49:19.177Z,45.4
2018-03-03T05:50:09.904Z,45.4
2018-03-03T05:50:59.448Z,45.4
2018-03-03T05:51:49.522Z,45.4
2018-03-03T05:52:39.829Z,45.3
2018-03-03T05:53:29.339Z,45.3
2018-03-03T05:54:20.168Z,45.3
2018-03-03T05:55:10.196Z,45.3
2018-03-03T05:55:59.826Z,45.3
2018-03-03T05:56:49.951Z,45.3
2018-03-03T05:57:40.069Z,45.3
2018-03-03T05:58:30.139Z,45.3
2018-03-03T05:59:20.108Z,45.3
2018-03-03T06:00:10.633Z,45.3
2018-03-03T06:01:00.035Z,45.3
2018-03-03T06:01:50.521Z,45.3
2018-03-03T06:02:41.306Z,45.3
2018-03-03T06:03:30.822Z,45.3
2018-03-03T06:04:21.178Z,45.2
2018-03-03T06:05:11.465Z,45.2
2018-03-03T06:06:01.512Z,45.2
2018-03-03T06:06:51.564Z,45.1
2018-03-03T06:07:41.619Z,45.2
2018-03-03T06:08:31.404Z,45.1
2018-03-03T06:09:21.719Z,45.2
2018-03-03T06:10:11.791Z,45.1
2018-03-03T06:11:01.579Z,45.1
2018-03-03T06:11:51.951Z,45.1
2018-03-03T06:12:41.963Z,45.1
2018-03-03T06:14:12.047Z,45.1
2018-03-03T06:14:25.583Z,45.1
2018-03-03T06:15:15.946Z,45.1
2018-03-03T06:16:06.526Z,45.1
2018-03-03T06:16:56.323Z,45.1
2018-03-03T06:17:46.647Z,45.1
2018-03-03T06:18:35.849Z,45.1
2018-03-03T06:19:26.776Z,45.1
2018-03-03T06:20:16.561Z,45.1
2018-03-03T06:21:06.958Z,45.1
2018-03-03T06:21:56.132Z,45.1
2018-03-03T06:22:46.436Z,45
2018-03-03T06:23:37.024Z,45.1
2018-03-03T06:24:25.691Z,45.1
2018-03-03T06:25:16.673Z,45
2018-03-03T06:26:06.932Z,45
2018-03-03T06:26:56.995Z,45
2018-03-03T06:27:47.077Z,45
2018-03-03T06:28:37.154Z,45
2018-03-03T06:29:26.889Z,45
2018-03-03T06:30:16.927Z,45
2018-03-03T06:31:07.046Z,45
2018-03-03T06:31:57.332Z,44.9
2018-03-03T06:32:47.479Z,44.9
2018-03-03T06:33:37.486Z,44.9
2018-03-03T06:34:27.259Z,44.9
2018-03-03T06:35:17.539Z,44.9
2018-03-03T06:36:07.906Z,44.9
2018-03-03T06:36:57.384Z,44.9
2018-03-03T06:37:46.874Z,44.9
2018-03-03T06:38:37.764Z,44.9
2018-03-03T06:39:27.858Z,44.9
2018-03-03T06:40:17.610Z,44.9
2018-03-03T06:41:07.942Z,44.9
2018-03-03T06:41:58.021Z,44.9
2018-03-03T06:42:48.318Z,44.9
2018-03-03T06:43:38.123Z,44.9
2018-03-03T06:44:28.432Z,44.9
2018-03-03T06:45:18.495Z,44.9
2018-03-03T06:46:08.371Z,44.9
2018-03-03T06:46:58.083Z,44.9
2018-03-03T06:47:48.215Z,44.9
2018-03-03T06:48:38.736Z,44.8
2018-03-03T06:49:28.270Z,44.9
2018-03-03T06:50:18.588Z,44.8
2018-03-03T06:51:08.608Z,44.8
2018-03-03T06:51:58.733Z,44.8
2018-03-03T06:52:48.425Z,44.8
2018-03-03T06:53:39.032Z,44.8
2018-03-03T06:54:28.847Z,44.8
2018-03-03T06:55:19.167Z,44.8
2018-03-03T06:56:09.240Z,44.8
2018-03-03T06:56:59.313Z,44.8
2018-03-03T06:57:49.061Z,44.8
2018-03-03T06:58:39.397Z,44.8
2018-03-03T06:59:28.882Z,44.8
2018-03-03T07:00:19.193Z,44.8
2018-03-03T07:01:08.365Z,44.7
2018-03-03T07:01:58.666Z,44.7
2018-03-03T07:02:47.780Z,44.7
2018-03-03T07:03:38.674Z,44.7
2018-03-03T07:04:28.931Z,44.7
2018-03-03T07:05:19.034Z,44.7
2018-03-03T07:06:07.945Z,44.7
2018-03-03T07:06:58.836Z,44.7
2018-03-03T07:07:49.391Z,44.6
2018-03-03T07:08:38.831Z,44.6
2018-03-03T07:09:28.786Z,44.6
2018-03-03T07:10:19.424Z,44.6
2018-03-03T07:11:09.011Z,44.6
2018-03-03T07:11:59.835Z,44.6
2018-03-03T07:12:50.117Z,44.6
2018-03-03T07:13:39.086Z,44.6
2018-03-03T07:14:29.941Z,44.6
2018-03-03T07:15:19.422Z,44.6
2018-03-03T07:16:09.666Z,44.6
2018-03-03T07:16:58.843Z,44.6
2018-03-03T07:17:49.382Z,44.6
2018-03-03T07:18:39.698Z,44.6
2018-03-03T07:19:29.982Z,44.6
2018-03-03T07:20:19.804Z,44.5
2018-03-03T07:21:10.382Z,44.6
2018-03-03T07:21:59.861Z,44.5
2018-03-03T07:22:49.107Z,44.5
2018-03-03T07:23:39.991Z,44.5
2018-03-03T07:24:29.846Z,44.5
2018-03-03T07:25:20.566Z,44.5
2018-03-03T07:26:10.134Z,44.5
2018-03-03T07:27:00.296Z,44.4
2018-03-03T07:27:50.982Z,44.4
2018-03-03T07:28:39.727Z,44.4
2018-03-03T07:29:29.322Z,44.4
2018-03-03T07:30:21.023Z,44.4
2018-03-03T07:31:10.891Z,44.4
2018-03-03T07:32:00.205Z,44.4
2018-03-03T07:32:50.603Z,44.4
2018-03-03T07:33:40.923Z,44.4
2018-03-03T07:34:30.228Z,44.4
2018-03-03T07:35:20.845Z,44.3
2018-03-03T07:36:10.225Z,44.3
2018-03-03T07:37:00.556Z,44.3
2018-03-03T07:37:50.124Z,44.3
2018-03-03T07:38:40.697Z,44.3
2018-03-03T07:39:30.791Z,44.3
2018-03-03T07:40:21.657Z,44.3
2018-03-03T07:41:10.570Z,44.3
2018-03-03T07:42:01.426Z,44.3
2018-03-03T07:42:51.405Z,44.3
2018-03-03T07:43:40.920Z,44.3
2018-03-03T07:44:31.364Z,44.2
2018-03-03T07:45:21.406Z,44.1
2018-03-03T07:46:10.879Z,44.1
2018-03-03T07:47:00.486Z,44
2018-03-03T07:47:51.432Z,43.8
2018-03-03T07:48:41.344Z,43.7
2018-03-03T07:49:32.850Z,43.6
2018-03-03T07:50:22.142Z,43.5
2018-03-03T07:51:11.808Z,43.5
2018-03-03T07:52:01.697Z,43.4
2018-03-03T07:52:51.526Z,43.4
2018-03-03T07:53:41.970Z,43.4
2018-03-03T07:54:32.292Z,43.3
2018-03-03T07:55:22.691Z,43.3
2018-03-03T07:56:12.159Z,43.3
2018-03-03T07:57:02.601Z,43.2
2018-03-03T07:57:52.287Z,43.2
2018-03-03T07:58:42.616Z,43.2
2018-03-03T07:59:32.072Z,43.2
2018-03-03T08:00:22.256Z,43.1
2018-03-03T08:01:13.083Z,43.1
2018-03-03T08:02:02.664Z,43.1
2018-03-03T08:02:52.500Z,43.1
2018-03-03T08:03:43.074Z,43.1
2018-03-03T08:04:32.431Z,43.1
2018-03-03T08:05:23.918Z,43.1
2018-03-03T08:06:13.107Z,43.1
2018-03-03T08:07:02.661Z,43.1
2018-03-03T08:07:52.958Z,43.1
2018-03-03T08:08:43.690Z,43.1
2018-03-03T08:09:33.138Z,43
2018-03-03T08:10:23.636Z,43
2018-03-03T08:11:13.336Z,43
2018-03-03T08:12:03.791Z,43
2018-03-03T08:12:54.332Z,43
2018-03-03T08:13:43.608Z,42.9
2018-03-03T08:14:33.968Z,42.9
2018-03-03T08:15:22.963Z,42.9
2018-03-03T08:16:14.173Z,42.9
2018-03-03T08:17:03.567Z,42.9
2018-03-03T08:17:53.644Z,42.9
2018-03-03T08:18:43.389Z,42.9
2018-03-03T08:19:34.307Z,42.9
2018-03-03T08:20:23.825Z,42.9
2018-03-03T08:21:13.690Z,42.9
2018-03-03T08:22:03.783Z,42.9
2018-03-03T08:22:53.237Z,42.9
2018-03-03T08:23:44.392Z,42.9
2018-03-03T08:24:33.572Z,42.8
2018-03-03T08:25:24.457Z,42.8
2018-03-03T08:26:15.047Z,42.8
2018-03-03T08:27:03.442Z,42.8
2018-03-03T08:27:54.762Z,42.8
2018-03-03T08:28:44.436Z,42.8
2018-03-03T08:29:34.681Z,42.8
2018-03-03T08:30:24.514Z,42.8
2018-03-03T08:31:14.889Z,42.8
2018-03-03T08:32:04.882Z,42.8
2018-03-03T08:32:54.356Z,42.8
2018-03-03T08:33:44.654Z,42.8
2018-03-03T08:34:35.318Z,42.8
2018-03-03T08:35:23.884Z,42.8
2018-03-03T08:36:14.929Z,42.7
2018-03-03T08:37:05.101Z,42.7
2018-03-03T08:37:55.139Z,42.7
2018-03-03T08:38:45.005Z,42.7
2018-03-03T08:39:34.951Z,42.7
2018-03-03T08:40:25.194Z,42.6
2018-03-03T08:41:16.321Z,42.7
2018-03-03T08:42:05.776Z,42.7
2018-03-03T08:42:56.439Z,42.6
2018-03-03T08:43:46.460Z,42.6
2018-03-03T08:44:35.925Z,42.6
2018-03-03T08:45:26.286Z,42.6
2018-03-03T08:46:16.056Z,42.6
2018-03-03T08:47:06.386Z,42.6
2018-03-03T08:47:56.478Z,42.6
2018-03-03T08:48:46.533Z,42.6
2018-03-03T08:49:35.756Z,42.6
2018-03-03T08:50:25.308Z,42.6
2018-03-03T08:51:15.863Z,42.6
2018-03-03T08:52:05.538Z,42.6
2018-03-03T08:52:56.060Z,42.5
2018-03-03T08:53:46.110Z,42.5
2018-03-03T08:54:35.879Z,42.5
2018-03-03T08:55:26.719Z,42.5
2018-03-03T08:56:16.019Z,42.4
2018-03-03T08:57:06.053Z,42.4
2018-03-03T08:57:55.600Z,42.4
2018-03-03T08:58:46.976Z,42.4
2018-03-03T08:59:36.221Z,42.4
2018-03-03T09:00:27.056Z,42.4
2018-03-03T09:01:16.753Z,42.4
2018-03-03T09:02:06.130Z,42.4
2018-03-03T09:02:56.843Z,42.4
2018-03-03T09:03:46.029Z,42.3
2018-03-03T09:04:36.426Z,42.3
2018-03-03T09:05:26.602Z,42.2
2018-03-03T09:06:18.124Z,42.1
2018-03-03T09:07:06.737Z,42.1
2018-03-03T09:07:56.907Z,42
2018-03-03T09:08:46.452Z,42
2018-03-03T09:09:36.895Z,42
2018-03-03T09:10:27.362Z,41.9
2018-03-03T09:11:17.207Z,41.9
2018-03-03T09:12:06.675Z,41.9
2018-03-03T09:12:57.639Z,41.9
2018-03-03T09:13:46.805Z,41.9
2018-03-03T09:14:37.099Z,41.9
2018-03-03T09:15:28.051Z,41.9
2018-03-03T09:16:17.619Z,41.8
2018-03-03T09:17:06.980Z,41.9
2018-03-03T09:17:57.297Z,41.8
2018-03-03T09:18:47.602Z,41.8
2018-03-03T09:19:37.803Z,41.8
2018-03-03T09:20:27.861Z,41.8
2018-03-03T09:21:17.607Z,41.8
2018-03-03T09:22:07.977Z,41.8
2018-03-03T09:22:58.653Z,41.8
2018-03-03T09:23:48.222Z,41.8
2018-03-03T09:24:39.031Z,41.8
2018-03-03T09:25:27.509Z,41.7
2018-03-03T09:26:17.513Z,41.7
2018-03-03T09:27:08.057Z,41.6
2018-03-03T09:27:58.303Z,41.5
2018-03-03T09:28:48.327Z,41.4
2018-03-03T09:29:38.606Z,41.3
2018-03-03T09:30:29.211Z,41.2
2018-03-03T09:31:18.435Z,41.1
2018-03-03T09:32:09.058Z,41.1
2018-03-03T09:32:58.141Z,41.1
2018-03-03T09:33:48.616Z,41.1
2018-03-03T09:34:39.423Z,41
2018-03-03T09:35:28.918Z,40.9
2018-03-03T09:36:19.602Z,40.9
2018-03-03T09:37:08.845Z,40.9
2018-03-03T09:37:59.545Z,40.9
2018-03-03T09:38:48.641Z,40.7
2018-03-03T09:39:39.028Z,40.8
2018-03-03T09:40:30.026Z,40.6
2018-03-03T09:41:19.533Z,40.5
2018-03-03T09:42:09.494Z,40.3
2018-03-03T09:42:58.943Z,40.2
2018-03-03T09:43:49.729Z,39.9
2018-03-03T09:44:39.374Z,39.8
2018-03-03T09:45:29.265Z,39.5
2018-03-03T09:46:19.566Z,39.4
2018-03-03T09:47:09.358Z,39.2
2018-03-03T09:47:59.567Z,38.9
2018-03-03T09:48:49.466Z,38.9
2018-03-03T09:49:38.970Z,38.9
2018-03-03T09:50:28.775Z,38.9
2018-03-03T09:51:20.498Z,38.9
2018-03-03T09:52:09.398Z,38.9
2018-03-03T09:52:59.453Z,39
2018-03-03T09:53:50.128Z,39.1
2018-03-03T09:54:39.803Z,39.3
2018-03-03T09:55:30.912Z,39.4
2018-03-03T09:56:19.763Z,39.5
2018-03-03T09:57:10.157Z,39.6
2018-03-03T09:58:01.069Z,39.8
2018-03-03T09:58:51.347Z,39.9
2018-03-03T09:59:41.025Z,40
2018-03-03T10:00:30.673Z,40.3
2018-03-03T10:01:20.930Z,40.3
2018-03-03T10:02:11.045Z,40.4
2018-03-03T10:03:00.364Z,40.6
2018-03-03T10:03:50.489Z,40.7
2018-03-03T10:04:40.941Z,40.9
2018-03-03T10:05:30.768Z,41
2018-03-03T10:06:21.354Z,41.1
2018-03-03T10:07:10.730Z,41.3
2018-03-03T10:08:01.480Z,41.4
2018-03-03T10:08:50.560Z,41.4
2018-03-03T10:09:41.682Z,41.5
2018-03-03T10:10:31.948Z,41.6
2018-03-03T10:11:21.701Z,41.6
2018-03-03T10:12:11.751Z,41.6
2018-03-03T10:13:01.824Z,41.8
2018-03-03T10:13:50.903Z,41.8
2018-03-03T10:14:41.454Z,41.8
2018-03-03T10:15:32.066Z,41.9
2018-03-03T10:16:21.454Z,41.9
2018-03-03T10:17:11.890Z,42
2018-03-03T10:18:01.173Z,42.1
2018-03-03T10:18:51.541Z,42.2
2018-03-03T10:19:42.282Z,42.3
2018-03-03T10:20:31.883Z,42.3
2018-03-03T10:21:21.938Z,42.4
2018-03-03T10:22:11.859Z,42.4
2018-03-03T10:23:02.229Z,42.5
2018-03-03T10:23:51.376Z,42.6
2018-03-03T10:24:42.698Z,42.6
2018-03-03T10:25:32.198Z,42.8
2018-03-03T10:26:23.803Z,42.8
2018-03-03T10:27:12.602Z,42.8
2018-03-03T10:28:02.636Z,42.8
2018-03-03T10:28:51.936Z,42.9
2018-03-03T10:29:42.432Z,43
2018-03-03T10:30:33.353Z,43.1
2018-03-03T10:31:22.910Z,43.1
2018-03-03T10:32:12.354Z,43.2
2018-03-03T10:33:03.828Z,43.2
2018-03-03T10:33:52.792Z,43.3
2018-03-03T10:34:42.738Z,43.3
2018-03-03T10:35:33.402Z,43.4
2018-03-03T10:36:23.129Z,43.4
2018-03-03T10:37:13.808Z,43.6
2018-03-03T10:38:03.077Z,43.6
2018-03-03T10:38:53.304Z,43.8
2018-03-03T10:39:43.403Z,43.8
2018-03-03T10:40:32.755Z,43.9
2018-03-03T10:41:23.220Z,43.9
2018-03-03T10:42:13.145Z,44.1
2018-03-03T10:43:04.200Z,44.1
2018-03-03T10:43:53.866Z,44.2
2018-03-03T10:44:43.750Z,44.3
2018-03-03T10:45:33.608Z,44.4
2018-03-03T10:46:23.958Z,44.6
2018-03-03T10:47:14.010Z,44.7
2018-03-03T10:48:03.796Z,44.8
2018-03-03T10:48:53.653Z,44.9
2018-03-03T10:49:45.087Z,45.1
2018-03-03T10:50:33.934Z,45.1
2018-03-03T10:51:23.572Z,45.3
2018-03-03T10:52:13.751Z,45.4
2018-03-03T10:53:05.210Z,45.5
2018-03-03T10:53:55.027Z,45.6
2018-03-03T10:54:44.397Z,45.8
2018-03-03T10:55:35.054Z,45.9
2018-03-03T10:56:25.089Z,46.1
2018-03-03T10:57:14.809Z,46.1
2018-03-03T10:58:04.556Z,46.3
2018-03-03T10:58:53.824Z,46.4
2018-03-03T10:59:45.159Z,46.5
2018-03-03T11:00:33.794Z,46.6
2018-03-03T11:01:24.771Z,46.8
2018-03-03T11:02:13.178Z,46.9
2018-03-03T11:03:05.478Z,46.9
2018-03-03T11:03:55.431Z,47.1
2018-03-03T11:04:44.359Z,47.3
2018-03-03T11:05:34.228Z,47.4
2018-03-03T11:06:25.648Z,47.6
2018-03-03T11:07:15.604Z,47.6
2018-03-03T11:08:06.313Z,47.8
2018-03-03T11:08:54.863Z,47.9